Terminal Aerodrome Forecast
Issued by NWS

Current Version | Previous Version | Text Only | Print | Product List | Glossary On
Versions: 1 2 3 4 5 6 7 8 9 10 11 12 13 14 15 16 17 18 19 20 21 22 23 24 25 26 27 28 29 30
000
FTUS41 KILN 271100
TAFLUK
TAF
KLUK 271131Z 2712/2812 20004KT P6SM SCT008
      TEMPO 2712/2713 BKN008
     FM271400 22012G18KT P6SM FEW035
     FM272000 23012G18KT P6SM VCTS BKN040CB
     FM280000 24012KT P6SM FEW040 BKN100
     FM280500 24004KT 5SM BR FEW050
     FM280900 00000KT 1/2SM FG FEW020=

USA.gov is the U.S. government's official web portal to all federal, state and local government web resources and services.